createdAt,value
2022-08-03T00:00:55.202Z,60.18
2022-08-03T00:06:03.826Z,54.49
2022-08-03T00:11:08.269Z,55.64
2022-08-03T00:16:11.475Z,56.88
2022-08-03T00:21:14.414Z,58.53
2022-08-03T00:26:18.700Z,59.76
2022-08-03T00:31:40.034Z,66.44
2022-08-03T00:36:44.448Z,59.72
2022-08-03T00:41:47.332Z,54.40
2022-08-03T00:46:50.175Z,56.00
2022-08-03T00:51:53.172Z,57.66
2022-08-03T00:56:59.728Z,59.05
2022-08-03T01:02:03.447Z,60.50
2022-08-03T01:07:22.067Z,67.44
2022-08-03T01:12:33.231Z,60.32
2022-08-03T01:17:44.219Z,54.74
2022-08-03T01:23:03.535Z,56.23
2022-08-03T01:28:15.339Z,57.46
2022-08-03T01:33:22.904Z,59.29
2022-08-03T01:38:32.248Z,66.03
2022-08-03T01:43:55.454Z,59.74
2022-08-03T01:49:01.377Z,54.61
2022-08-03T01:54:13.709Z,56.14
2022-08-03T01:59:19.144Z,57.59
2022-08-03T02:04:22.623Z,59.00
2022-08-03T02:09:28.916Z,58.70
2022-08-03T02:14:31.977Z,67.53
2022-08-03T02:19:36.143Z,60.68
2022-08-03T02:24:39.241Z,54.83
2022-08-03T02:29:45.927Z,55.87
2022-08-03T02:34:51.899Z,57.62
2022-08-03T02:40:01.145Z,59.02
2022-08-03T02:45:08.905Z,65.82
2022-08-03T02:50:15.551Z,59.57
2022-08-03T02:55:20.561Z,54.43
2022-08-03T03:00:28.135Z,55.85
2022-08-03T03:05:54.836Z,57.77
2022-08-03T03:10:57.289Z,58.85
2022-08-03T03:16:02.753Z,59.49
2022-08-03T03:21:08.503Z,66.29
2022-08-03T03:26:13.386Z,58.22
2022-08-03T03:31:16.632Z,54.80
2022-08-03T03:36:19.719Z,56.72
2022-08-03T03:41:22.711Z,58.66
2022-08-03T03:46:26.038Z,59.76
2022-08-03T03:51:28.955Z,66.16
2022-08-03T03:56:31.807Z,58.57
2022-08-03T04:01:34.680Z,54.16
2022-08-03T04:06:56.158Z,55.66
2022-08-03T04:12:01.983Z,56.86
2022-08-03T04:17:09.400Z,58.64
2022-08-03T04:22:15.882Z,59.78
2022-08-03T04:27:23.338Z,66.57
2022-08-03T04:32:28.901Z,59.94
2022-08-03T04:37:48.077Z,55.10
2022-08-03T04:42:52.950Z,56.64
2022-08-03T04:47:56.315Z,58.41
2022-08-03T04:52:59.538Z,59.79
2022-08-03T04:58:04.781Z,66.54
2022-08-03T05:03:19.399Z,61.04
2022-08-03T05:08:28.411Z,55.11
2022-08-03T05:13:31.565Z,56.11
2022-08-03T05:18:35.983Z,57.64
2022-08-03T05:23:38.926Z,59.05
2022-08-03T05:28:51.089Z,60.55
2022-08-03T05:33:54.805Z,67.23
2022-08-03T05:39:02.499Z,60.86
2022-08-03T05:44:06.604Z,55.08
2022-08-03T05:49:09.521Z,56.29
2022-08-03T05:54:12.492Z,58.28
2022-08-03T05:59:37.181Z,59.48
2022-08-03T06:04:38.243Z,60.62
2022-08-03T06:10:34.983Z,66.51
2022-08-03T06:15:05.200Z,59.15
2022-08-03T06:20:11.643Z,55.31
2022-08-03T06:25:15.013Z,56.82
2022-08-03T06:30:21.298Z,57.96
2022-08-03T06:35:24.683Z,58.71
2022-08-03T06:40:31.567Z,60.23
2022-08-03T06:45:35.448Z,65.79
2022-08-03T06:50:42.562Z,59.57
2022-08-03T06:55:45.528Z,54.28
2022-08-03T07:00:48.385Z,55.42
2022-08-03T07:05:51.503Z,56.64
2022-08-03T07:10:54.614Z,57.77
2022-08-03T07:15:57.579Z,59.07
2022-08-03T07:21:00.560Z,60.36
2022-08-03T07:26:03.671Z,65.74
2022-08-03T07:31:06.506Z,58.82
2022-08-03T07:36:09.363Z,54.56
2022-08-03T07:41:12.462Z,56.04
2022-08-03T07:46:15.549Z,57.12
2022-08-03T07:51:18.549Z,58.43
2022-08-03T07:56:21.538Z,58.93
2022-08-03T08:01:24.608Z,60.14
2022-08-03T08:06:27.540Z,60.53
2022-08-03T08:11:30.387Z,65.60
2022-08-03T08:16:33.288Z,56.82
2022-08-03T08:21:53.649Z,56.12
2022-08-03T08:26:58.960Z,57.66
2022-08-03T08:32:01.903Z,58.10
2022-08-03T08:37:05.224Z,59.07
2022-08-03T08:42:08.045Z,59.05
2022-08-03T08:47:12.319Z,59.48
2022-08-03T08:52:24.959Z,59.62
2022-08-03T08:57:42.918Z,59.37
2022-08-03T09:02:47.077Z,59.18
2022-08-03T09:07:52.231Z,59.16
2022-08-03T09:12:55.241Z,58.78
2022-08-03T09:18:01.209Z,59.46
2022-08-03T09:23:44.512Z,59.36
2022-08-03T09:28:53.876Z,58.21
2022-08-03T09:34:01.754Z,58.61
2022-08-03T09:39:13.074Z,60.00
2022-08-03T09:44:25.788Z,58.96
2022-08-03T09:49:29.125Z,57.96
2022-08-03T09:54:32.713Z,57.70
2022-08-03T09:59:35.670Z,57.34
2022-08-03T10:04:48.572Z,57.21
2022-08-03T10:10:28.978Z,57.66
2022-08-03T10:16:21.427Z,57.37
2022-08-03T10:20:52.157Z,57.69
2022-08-03T10:26:02.071Z,57.91
2022-08-03T10:31:07.744Z,57.53
2022-08-03T10:36:13.626Z,56.57
2022-08-03T10:41:20.159Z,56.22
2022-08-03T10:46:23.434Z,55.47
2022-08-03T10:51:31.994Z,55.13
2022-08-03T10:56:53.511Z,56.16
2022-08-03T11:02:00.778Z,56.51
2022-08-03T11:07:25.374Z,55.39
2022-08-03T11:12:33.173Z,54.93
2022-08-03T11:17:46.881Z,55.45
2022-08-03T11:23:01.849Z,55.31
2022-08-03T11:28:30.690Z,53.69
2022-08-03T11:33:33.710Z,53.90
2022-08-03T11:39:16.880Z,52.54
2022-08-03T11:44:42.256Z,50.32
2022-08-03T11:49:51.930Z,49.67
2022-08-03T11:54:56.895Z,49.23
2022-08-03T12:00:00.614Z,49.66
2022-08-03T12:05:03.906Z,50.15
2022-08-03T12:10:12.342Z,49.56
2022-08-03T12:15:15.246Z,49.29
2022-08-03T12:20:34.644Z,48.09
2022-08-03T12:25:40.126Z,48.42
2022-08-03T12:30:43.857Z,48.02
2022-08-03T12:36:08.328Z,46.96
2022-08-03T12:41:13.765Z,46.70
2022-08-03T12:46:18.337Z,46.38
2022-08-03T12:51:21.081Z,45.37
2022-08-03T12:56:24.764Z,44.95
2022-08-03T13:01:37.337Z,45.95
2022-08-03T13:06:40.233Z,46.46
2022-08-03T13:11:52.522Z,46.29
2022-08-03T13:17:06.526Z,46.82
2022-08-03T13:22:24.914Z,46.32
2022-08-03T13:28:04.478Z,45.35
2022-08-03T13:32:52.350Z,44.07
2022-08-03T13:37:55.212Z,44.05
2022-08-03T13:42:58.602Z,42.14
2022-08-03T13:48:01.580Z,39.68
2022-08-03T13:53:04.642Z,39.60
2022-08-03T13:58:09.716Z,40.35
2022-08-03T14:03:14.395Z,39.57
2022-08-03T14:08:18.363Z,38.30
2022-08-03T14:13:21.296Z,38.50
2022-08-03T14:18:28.564Z,37.94
2022-08-03T14:23:39.893Z,37.61
2022-08-03T14:28:42.739Z,37.98
2022-08-03T14:33:45.927Z,38.02
2022-08-03T14:38:48.756Z,38.13
2022-08-03T14:44:02.145Z,38.69
2022-08-03T14:50:36.976Z,38.27
2022-08-03T14:54:31.090Z,38.85
2022-08-03T14:59:55.581Z,39.13
2022-08-03T15:04:57.089Z,38.94
2022-08-03T15:10:00.013Z,39.18
2022-08-03T15:15:06.015Z,40.11
2022-08-03T15:20:22.531Z,39.30
2022-08-03T15:26:06.493Z,40.06
2022-08-03T15:30:55.550Z,40.75
2022-08-03T15:36:00.351Z,40.62
2022-08-03T15:41:03.556Z,40.52
2022-08-03T15:46:28.653Z,39.87
2022-08-03T15:51:30.014Z,40.33
2022-08-03T15:56:32.906Z,40.54
2022-08-03T16:01:36.044Z,40.74
2022-08-03T16:06:39.017Z,41.08
2022-08-03T16:11:41.881Z,41.28
2022-08-03T16:16:44.731Z,40.87
2022-08-03T16:21:50.169Z,41.47
2022-08-03T16:26:53.232Z,42.18
2022-08-03T16:31:56.083Z,43.01
2022-08-03T16:37:11.763Z,43.61
2022-08-03T16:42:22.967Z,43.71
2022-08-03T16:47:25.845Z,43.37
2022-08-03T16:52:28.792Z,43.12
2022-08-03T16:57:58.241Z,44.02
2022-08-03T17:02:56.942Z,44.13
2022-08-03T17:08:05.221Z,44.16
2022-08-03T17:13:21.453Z,44.33
2022-08-03T17:18:29.816Z,44.61
2022-08-03T17:23:53.608Z,45.29
2022-08-03T17:29:12.812Z,45.39
2022-08-03T17:34:16.741Z,46.12
2022-08-03T17:39:41.826Z,46.78
2022-08-03T17:44:47.101Z,47.46
2022-08-03T17:49:50.161Z,47.77
2022-08-03T17:55:55.587Z,48.27
2022-08-03T18:00:59.640Z,48.90
2022-08-03T18:06:11.163Z,49.05
2022-08-03T18:11:21.842Z,49.72
2022-08-03T18:16:31.395Z,49.82
2022-08-03T18:21:41.421Z,50.29
2022-08-03T18:26:59.599Z,50.92
2022-08-03T18:32:13.247Z,51.20
2022-08-03T18:37:23.012Z,51.28
2022-08-03T18:42:27.775Z,51.49
2022-08-03T18:47:50.514Z,51.77
2022-08-03T18:53:19.638Z,52.06
2022-08-03T18:58:40.745Z,52.85
2022-08-03T19:03:48.340Z,53.60
2022-08-03T19:09:04.358Z,53.84
2022-08-03T19:14:11.345Z,54.14
2022-08-03T19:19:18.136Z,54.60
2022-08-03T19:24:26.124Z,54.76
2022-08-03T19:29:57.947Z,55.37
2022-08-03T19:34:54.973Z,55.78
2022-08-03T19:39:58.612Z,55.98
2022-08-03T19:45:13.914Z,56.67
2022-08-03T19:50:20.121Z,57.15
2022-08-03T19:55:26.546Z,57.25
2022-08-03T20:00:38.244Z,57.19
2022-08-03T20:05:51.846Z,57.71
2022-08-03T20:10:55.611Z,58.18
2022-08-03T20:15:58.569Z,58.42
2022-08-03T20:21:14.741Z,58.51
2022-08-03T20:26:20.350Z,58.75
2022-08-03T20:31:32.560Z,58.99
2022-08-03T20:36:39.313Z,59.31
2022-08-03T20:41:42.451Z,59.66
2022-08-03T20:46:53.516Z,59.99
2022-08-03T20:52:03.935Z,60.16
2022-08-03T20:57:09.565Z,60.30
2022-08-03T21:02:13.228Z,60.57
2022-08-03T21:07:24.072Z,60.76
2022-08-03T21:12:41.349Z,61.02
2022-08-03T21:17:48.219Z,61.32
2022-08-03T21:22:54.278Z,61.48
2022-08-03T21:27:58.063Z,61.68
2022-08-03T21:33:01.052Z,62.03
2022-08-03T21:38:19.527Z,67.58
2022-08-03T21:43:22.748Z,61.58
2022-08-03T21:48:27.313Z,54.16
2022-08-03T21:54:02.727Z,53.91
2022-08-03T21:59:04.678Z,55.27
2022-08-03T22:04:11.819Z,56.41
2022-08-03T22:09:31.148Z,57.36
2022-08-03T22:14:34.065Z,58.34
2022-08-03T22:19:37.323Z,59.14
2022-08-03T22:24:44.395Z,59.83
2022-08-03T22:29:49.412Z,60.68
2022-08-03T22:34:52.921Z,61.33
2022-08-03T22:39:57.086Z,67.38
2022-08-03T22:45:02.299Z,61.21
2022-08-03T22:50:31.878Z,54.28
2022-08-03T22:55:31.366Z,54.64
2022-08-03T23:00:34.309Z,56.02
2022-08-03T23:06:01.020Z,56.87
2022-08-03T23:11:06.172Z,57.81
2022-08-03T23:16:09.929Z,59.05
2022-08-03T23:21:15.224Z,59.72
2022-08-03T23:26:18.579Z,60.54
2022-08-03T23:31:22.133Z,61.32
2022-08-03T23:36:30.411Z,67.52
2022-08-03T23:41:35.726Z,61.45
2022-08-03T23:46:39.340Z,54.51
2022-08-03T23:51:57.161Z,54.98
2022-08-03T23:57:17.884Z,56.21
